Santa Cruz, CA

1:41 AM PDT on September 04, 2015 (GMT -0700)
High St | | Change Station
CLOSE
Current Station
Personal Weather Station
Location: Santa Cruz, CA
Elevation: 141 ft
Nearby Weather Stations

Elev 141 ft 36.98 °N, 122.03 °W | Updated 8 minutes ago

Overcast
Overcast
52.3 °F
Feels Like 52.3 °F
N
0.0
Wind Variable Wind from SSE

Today
High -- | Low -- °F
--% Chance of Precip.
Yesterday
High -- | Low -- °F
Precip. -- in
6:41 AM 7:32 PM
Waning Gibbous, 61% visible
Pressure 29.87 in
Visibility 10.0 miles
Clouds Overcast 1100 ft
Dew Point 51 °F
Humidity 96%
Rainfall 0.00 in
Snow Depth Not available.
UV 0 out of 12
Pollen 8.00 out of 12
Air Quality Not available.
Flu Activity Not available.
METAR KWVI 040753Z AUTO 07004KT 10SM OVC011 16/12 A2988 RMK AO2 SLP115 T01560117 402440150
Pressure 29.87 in
Visibility 10.0 miles
Clouds Overcast 1100 ft
Dew Point 51 °F
Humidity 96%
Rainfall 0.00 in
Snow Depth Not available.
UV 0 out of 12
Pollen 8.00 out of 12
Air Quality Not available.
Flu Activity Not available.
METAR KWVI 040753Z AUTO 07004KT 10SM OVC011 16/12 A2988 RMK AO2 SLP115 T01560117 402440150

10-Day Weather Forecast

×

Almanac

Astronomy

Sep. 04, 2015 Rise Set
Actual Time
Civil Twilight
Nautical Twilight
Astronomical Twilight
Moon
Length of Visible Light
Length of Day
Tomorrow will be .
, % of the Moon is Illuminated

Today's Extremes

State Highs State Lows

Community

WunderPhotos

Upload Photos

1,852,141 photos uploaded!

WunderBlogs® & News

Nearby

Air Quality

  Air Quality AQ Index Pollutant
Not available.

Snow Depth

Station Depth Elevation

Earthquake Activity

City Distance Mag. Time & Date
Minimum magnitude displayed is 2.5.

Coastal Water Temperatures

Place Temperature

Stations

Nearby Weather Stations

Station Location Temp. Windchill Dew Point Humidity Wind Precip. Elev Updated Type